Weather at Kuala Medamit Airport

Public forecast

Using degrees Celsius for public forecast. Weather courtesy of forecast.io.

Closest aviation weather report (METAR) to Kuala Medamit Airport

Closest report is Brunei International Airport, 28.7 nm (53.2 km) N. Retrieved 2022/06/30 10:00 UTC (18 minutes ago):

WBSB 301000Z 26005KT 9999 FEW016 FEW017CB BKN280 30/27 Q1006 NOSIG

Closest aviation forecast (TAF) to Kuala Medamit Airport

Closest forecast is Brunei International Airport, 28.7 nm (53.2 km) N. Retrieved 2022/06/30 06:15 UTC (4 hours ago):

TAF WBSB 300500Z 3006/0112 23012KT 9999 FEW016 TEMPO 3013/3017 22015G20KT 5000 SHRA